sensor_id;sensor_type;location;lat;lon;timestamp;pressure;altitude;pressure_sealevel;temperature;humidity
69570;BME280;56781;42.292;23.146;2023-05-08T00:01:11;95722.22;;;9.51;100.00
69570;BME280;56781;42.292;23.146;2023-05-08T00:03:38;95745.44;;;9.74;100.00
69570;BME280;56781;42.292;23.146;2023-05-08T00:06:06;95743.53;;;9.56;100.00
69570;BME280;56781;42.292;23.146;2023-05-08T00:08:33;95751.50;;;9.18;100.00
69570;BME280;56781;42.292;23.146;2023-05-08T00:11:04;95754.25;;;9.08;100.00
69570;BME280;56781;42.292;23.146;2023-05-08T00:13:31;95735.56;;;9.08;100.00
69570;BME280;56781;42.292;23.146;2023-05-08T00:15:58;95720.75;;;9.21;100.00
69570;BME280;56781;42.292;23.146;2023-05-08T00:18:25;95746.34;;;9.46;100.00
69570;BME280;56781;42.292;23.146;2023-05-08T00:20:53;95742.78;;;9.31;100.00
69570;BME280;56781;42.292;23.146;2023-05-08T00:23:20;95747.56;;;9.10;100.00
69570;BME280;56781;42.292;23.146;2023-05-08T00:25:47;95728.13;;;9.05;100.00
69570;BME280;56781;42.292;23.146;2023-05-08T00:28:15;95751.53;;;9.37;100.00
69570;BME280;56781;42.292;23.146;2023-05-08T00:30:42;95751.59;;;9.32;100.00
69570;BME280;56781;42.292;23.146;2023-05-08T00:33:09;95759.38;;;9.28;100.00
69570;BME280;56781;42.292;23.146;2023-05-08T00:35:37;95741.75;;;9.03;100.00
69570;BME280;56781;42.292;23.146;2023-05-08T00:38:06;95758.91;;;8.97;100.00
69570;BME280;56781;42.292;23.146;2023-05-08T00:40:34;95754.59;;;8.77;100.00
69570;BME280;56781;42.292;23.146;2023-05-08T00:43:01;95758.91;;;8.97;100.00
69570;BME280;56781;42.292;23.146;2023-05-08T00:45:33;95745.19;;;8.85;100.00
69570;BME280;56781;42.292;23.146;2023-05-08T00:48:01;95758.09;;;9.02;100.00
69570;BME280;56781;42.292;23.146;2023-05-08T00:50:30;95740.28;;;8.92;100.00
69570;BME280;56781;42.292;23.146;2023-05-08T00:52:59;95762.22;;;9.13;100.00
69570;BME280;56781;42.292;23.146;2023-05-08T00:55:30;95726.56;;;9.04;100.00
69570;BME280;56781;42.292;23.146;2023-05-08T00:57:58;95735.78;;;9.12;100.00
69570;BME280;56781;42.292;23.146;2023-05-08T01:00:25;95756.75;;;8.75;100.00
69570;BME280;56781;42.292;23.146;2023-05-08T01:02:53;95748.75;;;8.07;100.00
69570;BME280;56781;42.292;23.146;2023-05-08T02:03:00;95746.94;;;6.98;100.00
69570;BME280;56781;42.292;23.146;2023-05-08T02:05:29;95750.41;;;6.83;100.00
69570;BME280;56781;42.292;23.146;2023-05-08T02:07:57;95744.28;;;6.93;100.00
69570;BME280;56781;42.292;23.146;2023-05-08T02:10:26;95751.94;;;7.04;100.00
69570;BME280;56781;42.292;23.146;2023-05-08T02:12:55;95753.00;;;7.08;100.00
69570;BME280;56781;42.292;23.146;2023-05-08T02:15:26;95743.50;;;6.92;100.00
69570;BME280;56781;42.292;23.146;2023-05-08T02:17:56;95779.13;;;6.96;100.00
69570;BME280;56781;42.292;23.146;2023-05-08T02:20:25;95754.13;;;6.92;100.00
69570;BME280;56781;42.292;23.146;2023-05-08T02:22:54;95764.97;;;7.11;100.00
69570;BME280;56781;42.292;23.146;2023-05-08T02:25:23;95761.19;;;7.27;100.00
69570;BME280;56781;42.292;23.146;2023-05-08T02:27:52;95749.41;;;7.44;100.00
69570;BME280;56781;42.292;23.146;2023-05-08T02:30:23;95739.03;;;7.37;100.00
69570;BME280;56781;42.292;23.146;2023-05-08T02:32:53;95768.91;;;7.29;100.00
69570;BME280;56781;42.292;23.146;2023-05-08T02:35:26;95760.34;;;7.37;100.00
69570;BME280;56781;42.292;23.146;2023-05-08T02:37:56;95756.13;;;7.26;100.00
69570;BME280;56781;42.292;23.146;2023-05-08T02:40:26;95760.25;;;6.93;100.00
69570;BME280;56781;42.292;23.146;2023-05-08T02:42:55;95765.63;;;6.47;100.00
69570;BME280;56781;42.292;23.146;2023-05-08T02:45:24;95768.56;;;6.30;100.00
69570;BME280;56781;42.292;23.146;2023-05-08T02:48:07;95776.81;;;6.28;100.00
69570;BME280;56781;42.292;23.146;2023-05-08T02:50:44;95765.38;;;6.38;100.00
69570;BME280;56781;42.292;23.146;2023-05-08T02:53:21;95770.69;;;6.38;100.00
69570;BME280;56781;42.292;23.146;2023-05-08T02:56:02;95779.19;;;6.71;100.00
69570;BME280;56781;42.292;23.146;2023-05-08T02:58:56;95766.69;;;6.61;100.00
69570;BME280;56781;42.292;23.146;2023-05-08T03:01:34;95778.41;;;6.50;100.00
69570;BME280;56781;42.292;23.146;2023-05-08T03:04:07;95776.53;;;6.55;100.00
69570;BME280;56781;42.292;23.146;2023-05-08T03:06:40;95763.75;;;6.27;100.00
69570;BME280;56781;42.292;23.146;2023-05-08T03:09:17;95775.44;;;6.56;100.00
69570;BME280;56781;42.292;23.146;2023-05-08T03:11:48;95795.69;;;6.57;100.00
69570;BME280;56781;42.292;23.146;2023-05-08T03:14:20;95775.75;;;6.50;100.00
69570;BME280;56781;42.292;23.146;2023-05-08T03:16:51;95785.53;;;6.75;100.00
69570;BME280;56781;42.292;23.146;2023-05-08T03:19:27;95782.63;;;6.81;100.00
69570;BME280;56781;42.292;23.146;2023-05-08T03:21:57;95780.44;;;7.04;100.00
69570;BME280;56781;42.292;23.146;2023-05-08T03:24:26;95806.47;;;7.27;100.00
69570;BME280;56781;42.292;23.146;2023-05-08T03:26:57;95799.78;;;7.30;100.00
69570;BME280;56781;42.292;23.146;2023-05-08T03:29:26;95778.03;;;7.07;100.00
69570;BME280;56781;42.292;23.146;2023-05-08T03:31:56;95784.91;;;7.14;100.00
69570;BME280;56781;42.292;23.146;2023-05-08T03:34:24;95805.41;;;7.18;100.00
69570;BME280;56781;42.292;23.146;2023-05-08T03:36:52;95777.56;;;6.85;100.00
69570;BME280;56781;42.292;23.146;2023-05-08T03:39:19;95796.97;;;6.85;100.00
69570;BME280;56781;42.292;23.146;2023-05-08T03:41:47;95783.19;;;6.42;100.00
69570;BME280;56781;42.292;23.146;2023-05-08T03:44:15;95781.84;;;6.55;100.00
69570;BME280;56781;42.292;23.146;2023-05-08T03:46:44;95784.44;;;6.91;100.00
69570;BME280;56781;42.292;23.146;2023-05-08T03:49:13;95814.16;;;7.34;100.00
69570;BME280;56781;42.292;23.146;2023-05-08T03:51:41;95781.63;;;7.47;100.00
69570;BME280;56781;42.292;23.146;2023-05-08T03:54:09;95793.03;;;7.58;100.00
69570;BME280;56781;42.292;23.146;2023-05-08T03:56:36;95796.56;;;7.93;100.00
69570;BME280;56781;42.292;23.146;2023-05-08T03:59:58;95786.47;;;7.90;100.00
69570;BME280;56781;42.292;23.146;2023-05-08T04:04:58;95792.44;;;8.55;100.00
69570;BME280;56781;42.292;23.146;2023-05-08T04:07:31;95787.19;;;8.74;100.00
69570;BME280;56781;42.292;23.146;2023-05-08T04:10:23;95803.53;;;8.97;100.00
69570;BME280;56781;42.292;23.146;2023-05-08T04:13:05;95818.09;;;9.33;100.00
69570;BME280;56781;42.292;23.146;2023-05-08T04:15:37;95806.84;;;9.37;100.00
69570;BME280;56781;42.292;23.146;2023-05-08T04:18:07;95802.28;;;9.37;100.00
69570;BME280;56781;42.292;23.146;2023-05-08T04:20:38;95796.41;;;9.59;100.00
69570;BME280;56781;42.292;23.146;2023-05-08T04:23:08;95800.94;;;9.83;100.00
69570;BME280;56781;42.292;23.146;2023-05-08T04:25:39;95804.44;;;10.40;100.00
69570;BME280;56781;42.292;23.146;2023-05-08T04:28:09;95790.47;;;10.76;100.00
69570;BME280;56781;42.292;23.146;2023-05-08T04:30:39;95806.56;;;10.90;100.00
69570;BME280;56781;42.292;23.146;2023-05-08T04:33:07;95792.63;;;10.74;100.00
69570;BME280;56781;42.292;23.146;2023-05-08T04:35:35;95815.91;;;10.92;100.00
69570;BME280;56781;42.292;23.146;2023-05-08T04:38:02;95786.88;;;11.13;100.00
69570;BME280;56781;42.292;23.146;2023-05-08T04:40:29;95813.28;;;11.47;100.00
69570;BME280;56781;42.292;23.146;2023-05-08T04:42:57;95791.13;;;11.28;100.00
69570;BME280;56781;42.292;23.146;2023-05-08T04:45:24;95795.31;;;11.62;100.00
69570;BME280;56781;42.292;23.146;2023-05-08T04:47:51;95808.75;;;12.12;97.70
69570;BME280;56781;42.292;23.146;2023-05-08T04:50:18;95783.63;;;12.08;96.13
69570;BME280;56781;42.292;23.146;2023-05-08T04:52:46;95793.47;;;12.35;95.68
69570;BME280;56781;42.292;23.146;2023-05-08T04:55:13;95793.91;;;12.51;95.57
69570;BME280;56781;42.292;23.146;2023-05-08T04:57:40;95787.38;;;12.43;94.93
69570;BME280;56781;42.292;23.146;2023-05-08T05:00:08;95778.88;;;12.72;94.83
69570;BME280;56781;42.292;23.146;2023-05-08T05:02:35;95788.34;;;13.23;92.17
69570;BME280;56781;42.292;23.146;2023-05-08T05:05:03;95779.50;;;13.63;90.18
69570;BME280;56781;42.292;23.146;2023-05-08T05:07:30;95780.16;;;13.86;88.03
69570;BME280;56781;42.292;23.146;2023-05-08T05:09:58;95778.31;;;14.12;86.15
69570;BME280;56781;42.292;23.146;2023-05-08T05:12:26;95765.16;;;14.72;84.43
69570;BME280;56781;42.292;23.146;2023-05-08T05:14:56;95770.06;;;16.56;77.61
69570;BME280;56781;42.292;23.146;2023-05-08T05:17:26;95768.06;;;16.99;73.95
69570;BME280;56781;42.292;23.146;2023-05-08T05:19:58;95781.41;;;16.08;76.27
69570;BME280;56781;42.292;23.146;2023-05-08T05:22:28;95754.22;;;16.67;74.26
69570;BME280;56781;42.292;23.146;2023-05-08T05:24:59;95765.78;;;17.71;70.42
69570;BME280;56781;42.292;23.146;2023-05-08T05:27:26;95750.66;;;18.07;68.20
69570;BME280;56781;42.292;23.146;2023-05-08T05:29:53;95766.38;;;18.29;68.45
69570;BME280;56781;42.292;23.146;2023-05-08T05:32:26;95763.44;;;19.51;65.44
69570;BME280;56781;42.292;23.146;2023-05-08T05:34:56;95752.03;;;19.13;63.93
69570;BME280;56781;42.292;23.146;2023-05-08T05:37:23;95768.59;;;19.08;65.62
69570;BME280;56781;42.292;23.146;2023-05-08T05:39:51;95757.69;;;19.68;61.97
69570;BME280;56781;42.292;23.146;2023-05-08T05:42:18;95746.41;;;20.21;61.59
69570;BME280;56781;42.292;23.146;2023-05-08T05:44:45;95747.91;;;20.37;60.71
69570;BME280;56781;42.292;23.146;2023-05-08T05:47:15;95754.00;;;20.50;59.99
69570;BME280;56781;42.292;23.146;2023-05-08T05:49:42;95742.50;;;20.57;59.34
69570;BME280;56781;42.292;23.146;2023-05-08T05:52:13;95739.00;;;19.35;64.22
69570;BME280;56781;42.292;23.146;2023-05-08T05:54:40;95747.06;;;19.47;66.78
69570;BME280;56781;42.292;23.146;2023-05-08T05:57:08;95741.81;;;19.38;64.63
69570;BME280;56781;42.292;23.146;2023-05-08T05:59:35;95755.84;;;18.40;70.04
69570;BME280;56781;42.292;23.146;2023-05-08T06:02:02;95752.84;;;17.89;71.56
69570;BME280;56781;42.292;23.146;2023-05-08T06:04:30;95737.03;;;18.59;70.36
69570;BME280;56781;42.292;23.146;2023-05-08T06:06:57;95738.00;;;19.90;65.26
69570;BME280;56781;42.292;23.146;2023-05-08T06:09:24;95737.25;;;21.53;58.42
69570;BME280;56781;42.292;23.146;2023-05-08T06:11:52;95752.66;;;21.95;57.05
69570;BME280;56781;42.292;23.146;2023-05-08T06:14:19;95724.81;;;22.08;55.95
69570;BME280;56781;42.292;23.146;2023-05-08T06:16:46;95737.59;;;21.28;59.44
69570;BME280;56781;42.292;23.146;2023-05-08T06:19:13;95746.16;;;20.65;61.22
69570;BME280;56781;42.292;23.146;2023-05-08T06:21:40;95748.09;;;19.58;65.78
69570;BME280;56781;42.292;23.146;2023-05-08T06:24:07;95742.56;;;20.41;61.76
69570;BME280;56781;42.292;23.146;2023-05-08T06:26:34;95733.03;;;20.51;60.71
69570;BME280;56781;42.292;23.146;2023-05-08T06:29:02;95749.88;;;20.56;60.76
69570;BME280;56781;42.292;23.146;2023-05-08T06:31:29;95753.00;;;21.40;57.16
69570;BME280;56781;42.292;23.146;2023-05-08T06:33:56;95742.38;;;21.58;57.36
69570;BME280;56781;42.292;23.146;2023-05-08T06:36:23;95738.13;;;22.13;55.20
69570;BME280;56781;42.292;23.146;2023-05-08T06:38:50;95739.22;;;23.03;52.72
69570;BME280;56781;42.292;23.146;2023-05-08T06:41:17;95741.91;;;22.66;53.85
69570;BME280;56781;42.292;23.146;2023-05-08T06:43:45;95716.41;;;21.90;55.48
69570;BME280;56781;42.292;23.146;2023-05-08T06:46:12;95759.84;;;21.11;57.92
69570;BME280;56781;42.292;23.146;2023-05-08T06:48:39;95743.44;;;21.07;56.47
69570;BME280;56781;42.292;23.146;2023-05-08T06:51:07;95758.31;;;20.71;58.11
69570;BME280;56781;42.292;23.146;2023-05-08T06:53:34;95749.63;;;20.07;59.12
69570;BME280;56781;42.292;23.146;2023-05-08T06:56:01;95767.28;;;19.18;63.13
69570;BME280;56781;42.292;23.146;2023-05-08T06:58:28;95741.84;;;19.89;60.34
69570;BME280;56781;42.292;23.146;2023-05-08T07:01:00;95747.00;;;19.95;61.39
69570;BME280;56781;42.292;23.146;2023-05-08T07:03:28;95757.72;;;20.42;59.04
69570;BME280;56781;42.292;23.146;2023-05-08T07:05:55;95751.84;;;19.85;60.15
69570;BME280;56781;42.292;23.146;2023-05-08T07:08:22;95732.03;;;20.78;59.29
69570;BME280;56781;42.292;23.146;2023-05-08T07:10:49;95731.19;;;20.74;58.54
69570;BME280;56781;42.292;23.146;2023-05-08T07:13:17;95736.34;;;20.60;58.01
69570;BME280;56781;42.292;23.146;2023-05-08T07:15:47;95742.53;;;20.22;58.59
69570;BME280;56781;42.292;23.146;2023-05-08T07:18:15;95730.91;;;19.86;59.88
69570;BME280;56781;42.292;23.146;2023-05-08T07:20:42;95760.03;;;20.05;61.49
69570;BME280;56781;42.292;23.146;2023-05-08T07:23:09;95749.84;;;20.18;61.02
69570;BME280;56781;42.292;23.146;2023-05-08T07:25:36;95756.38;;;19.97;60.55
69570;BME280;56781;42.292;23.146;2023-05-08T07:28:04;95740.50;;;19.99;62.06
69570;BME280;56781;42.292;23.146;2023-05-08T07:30:31;95741.03;;;20.24;59.63
69570;BME280;56781;42.292;23.146;2023-05-08T07:32:59;95732.53;;;20.26;60.08
69570;BME280;56781;42.292;23.146;2023-05-08T07:35:26;95739.03;;;20.41;58.53
69570;BME280;56781;42.292;23.146;2023-05-08T07:37:55;95744.53;;;21.02;56.87
69570;BME280;56781;42.292;23.146;2023-05-08T07:40:22;95740.34;;;21.09;55.95
69570;BME280;56781;42.292;23.146;2023-05-08T07:42:49;95740.09;;;22.43;53.59
69570;BME280;56781;42.292;23.146;2023-05-08T07:45:16;95741.44;;;21.27;56.33
69570;BME280;56781;42.292;23.146;2023-05-08T07:47:51;95745.19;;;20.96;56.74
69570;BME280;56781;42.292;23.146;2023-05-08T07:50:19;95749.22;;;20.83;58.62
69570;BME280;56781;42.292;23.146;2023-05-08T07:52:46;95753.47;;;20.61;59.00
69570;BME280;56781;42.292;23.146;2023-05-08T07:55:16;95712.38;;;19.91;61.24
69570;BME280;56781;42.292;23.146;2023-05-08T07:57:43;95743.19;;;20.15;59.12
69570;BME280;56781;42.292;23.146;2023-05-08T08:00:12;95738.91;;;20.92;59.53
69570;BME280;56781;42.292;23.146;2023-05-08T08:02:41;95734.84;;;21.48;58.51
69570;BME280;56781;42.292;23.146;2023-05-08T08:05:09;95751.09;;;21.44;54.62
69570;BME280;56781;42.292;23.146;2023-05-08T08:07:37;95730.75;;;21.61;54.06
69570;BME280;56781;42.292;23.146;2023-05-08T08:10:05;95726.53;;;21.17;57.60
69570;BME280;56781;42.292;23.146;2023-05-08T08:12:32;95716.13;;;21.46;55.79
69570;BME280;56781;42.292;23.146;2023-05-08T08:14:59;95736.56;;;21.59;57.05
69570;BME280;56781;42.292;23.146;2023-05-08T08:17:26;95724.41;;;21.07;57.78
69570;BME280;56781;42.292;23.146;2023-05-08T08:19:55;95727.31;;;20.75;58.87
69570;BME280;56781;42.292;23.146;2023-05-08T08:22:23;95727.91;;;21.08;57.65
69570;BME280;56781;42.292;23.146;2023-05-08T08:24:51;95741.19;;;20.51;62.15
69570;BME280;56781;42.292;23.146;2023-05-08T08:27:21;95727.44;;;20.44;62.86
69570;BME280;56781;42.292;23.146;2023-05-08T08:29:49;95731.88;;;20.13;64.36
69570;BME280;56781;42.292;23.146;2023-05-08T08:32:30;95728.84;;;20.53;61.08
69570;BME280;56781;42.292;23.146;2023-05-08T08:34:57;95732.41;;;21.42;60.77
69570;BME280;56781;42.292;23.146;2023-05-08T08:37:24;95739.94;;;21.76;57.96
69570;BME280;56781;42.292;23.146;2023-05-08T08:39:52;95736.69;;;21.20;58.39
69570;BME280;56781;42.292;23.146;2023-05-08T08:42:19;95720.31;;;20.74;61.36
69570;BME280;56781;42.292;23.146;2023-05-08T08:44:46;95743.69;;;20.40;59.38
69570;BME280;56781;42.292;23.146;2023-05-08T08:47:15;95726.25;;;21.03;58.70
69570;BME280;56781;42.292;23.146;2023-05-08T08:49:46;95753.59;;;20.68;62.16
69570;BME280;56781;42.292;23.146;2023-05-08T08:52:21;95737.13;;;19.86;63.08
69570;BME280;56781;42.292;23.146;2023-05-08T08:54:54;95750.75;;;19.70;63.01
69570;BME280;56781;42.292;23.146;2023-05-08T08:57:23;95740.94;;;19.66;65.51
69570;BME280;56781;42.292;23.146;2023-05-08T08:59:53;95735.31;;;19.75;65.33
69570;BME280;56781;42.292;23.146;2023-05-08T09:02:22;95738.84;;;19.95;60.57
69570;BME280;56781;42.292;23.146;2023-05-08T09:04:50;95749.41;;;20.15;62.69
69570;BME280;56781;42.292;23.146;2023-05-08T09:07:17;95734.59;;;20.52;59.56
69570;BME280;56781;42.292;23.146;2023-05-08T09:09:46;95734.25;;;20.34;61.86
69570;BME280;56781;42.292;23.146;2023-05-08T09:12:14;95726.28;;;20.61;59.51
69570;BME280;56781;42.292;23.146;2023-05-08T09:14:41;95752.22;;;20.97;58.43
69570;BME280;56781;42.292;23.146;2023-05-08T09:17:09;95725.72;;;20.94;59.45
69570;BME280;56781;42.292;23.146;2023-05-08T09:19:36;95735.16;;;20.57;63.32
69570;BME280;56781;42.292;23.146;2023-05-08T09:22:03;95735.50;;;20.56;62.79
69570;BME280;56781;42.292;23.146;2023-05-08T09:24:55;95750.22;;;20.00;65.35
69570;BME280;56781;42.292;23.146;2023-05-08T09:27:24;95729.38;;;19.69;64.47
69570;BME280;56781;42.292;23.146;2023-05-08T09:30:04;95737.03;;;19.83;67.13
69570;BME280;56781;42.292;23.146;2023-05-08T09:32:35;95752.94;;;19.49;70.17
69570;BME280;56781;42.292;23.146;2023-05-08T09:35:04;95746.97;;;19.43;67.73
69570;BME280;56781;42.292;23.146;2023-05-08T09:37:31;95750.81;;;19.42;70.33
69570;BME280;56781;42.292;23.146;2023-05-08T09:40:21;95727.72;;;19.33;70.12
69570;BME280;56781;42.292;23.146;2023-05-08T09:42:49;95723.16;;;19.37;69.26
69570;BME280;56781;42.292;23.146;2023-05-08T09:45:28;95723.16;;;19.21;70.02
69570;BME280;56781;42.292;23.146;2023-05-08T09:47:56;95723.75;;;18.98;72.66
69570;BME280;56781;42.292;23.146;2023-05-08T09:50:23;95742.03;;;19.01;73.63
69570;BME280;56781;42.292;23.146;2023-05-08T09:52:51;95735.84;;;19.01;73.25
69570;BME280;56781;42.292;23.146;2023-05-08T09:55:18;95740.31;;;19.09;72.23
69570;BME280;56781;42.292;23.146;2023-05-08T09:57:57;95729.09;;;19.11;75.36
69570;BME280;56781;42.292;23.146;2023-05-08T10:00:26;95704.81;;;18.86;75.84
69570;BME280;56781;42.292;23.146;2023-05-08T10:02:59;95696.53;;;18.79;78.98
69570;BME280;56781;42.292;23.146;2023-05-08T10:05:31;95691.28;;;18.58;83.92
69570;BME280;56781;42.292;23.146;2023-05-08T10:08:21;95696.09;;;18.65;83.23
69570;BME280;56781;42.292;23.146;2023-05-08T10:10:49;95684.00;;;18.90;80.56
69570;BME280;56781;42.292;23.146;2023-05-08T10:13:16;95669.03;;;18.96;81.61
69570;BME280;56781;42.292;23.146;2023-05-08T10:15:44;95661.34;;;19.30;80.16
69570;BME280;56781;42.292;23.146;2023-05-08T10:18:13;95659.25;;;19.75;77.01
69570;BME280;56781;42.292;23.146;2023-05-08T10:20:43;95656.63;;;19.98;76.70
69570;BME280;56781;42.292;23.146;2023-05-08T10:23:14;95667.97;;;19.84;77.76
69570;BME280;56781;42.292;23.146;2023-05-08T10:25:47;95652.09;;;19.51;77.53
69570;BME280;56781;42.292;23.146;2023-05-08T10:30:59;95668.50;;;20.09;74.43
69570;BME280;56781;42.292;23.146;2023-05-08T10:33:29;95656.34;;;20.22;71.22
69570;BME280;56781;42.292;23.146;2023-05-08T10:36:00;95651.63;;;20.00;70.40
69570;BME280;56781;42.292;23.146;2023-05-08T10:38:27;95649.00;;;20.46;72.23
69570;BME280;56781;42.292;23.146;2023-05-08T10:40:59;95664.59;;;21.14;72.80
69570;BME280;56781;42.292;23.146;2023-05-08T10:43:28;95654.19;;;21.69;68.82
69570;BME280;56781;42.292;23.146;2023-05-08T10:45:56;95634.28;;;21.96;64.63
69570;BME280;56781;42.292;23.146;2023-05-08T10:51:03;95635.63;;;21.25;60.67
69570;BME280;56781;42.292;23.146;2023-05-08T10:53:37;95615.78;;;20.98;63.69
69570;BME280;56781;42.292;23.146;2023-05-08T10:56:06;95651.97;;;21.25;61.99
69570;BME280;56781;42.292;23.146;2023-05-08T10:58:35;95627.25;;;20.88;59.00
69570;BME280;56781;42.292;23.146;2023-05-08T11:03:45;95617.53;;;21.63;58.58
69570;BME280;56781;42.292;23.146;2023-05-08T11:06:13;95642.00;;;21.10;60.07
69570;BME280;56781;42.292;23.146;2023-05-08T11:08:46;95619.53;;;21.40;60.49
69570;BME280;56781;42.292;23.146;2023-05-08T11:11:26;95616.97;;;21.81;58.76
69570;BME280;56781;42.292;23.146;2023-05-08T11:19:28;95620.63;;;21.92;57.79
69570;BME280;56781;42.292;23.146;2023-05-08T11:22:12;95603.34;;;22.48;56.00
69570;BME280;56781;42.292;23.146;2023-05-08T11:27:17;95592.97;;;23.06;51.59
69570;BME280;56781;42.292;23.146;2023-05-08T11:30:21;95602.91;;;22.87;52.07
69570;BME280;56781;42.292;23.146;2023-05-08T11:35:49;95589.63;;;22.82;52.17
69570;BME280;56781;42.292;23.146;2023-05-08T11:38:34;95573.19;;;22.75;50.76
69570;BME280;56781;42.292;23.146;2023-05-08T11:46:43;95587.91;;;21.92;52.22
69570;BME280;56781;42.292;23.146;2023-05-08T11:49:15;95561.47;;;22.74;52.98
69570;BME280;56781;42.292;23.146;2023-05-08T11:51:48;95556.28;;;22.59;52.32
69570;BME280;56781;42.292;23.146;2023-05-08T11:54:17;95573.25;;;22.82;51.18
69570;BME280;56781;42.292;23.146;2023-05-08T11:56:46;95567.75;;;22.34;52.67
69570;BME280;56781;42.292;23.146;2023-05-08T11:59:14;95549.63;;;23.00;55.90
69570;BME280;56781;42.292;23.146;2023-05-08T12:01:41;95548.56;;;22.68;51.99
69570;BME280;56781;42.292;23.146;2023-05-08T12:04:19;95539.00;;;22.88;54.46
69570;BME280;56781;42.292;23.146;2023-05-08T12:06:46;95532.53;;;23.14;51.02
69570;BME280;56781;42.292;23.146;2023-05-08T12:09:16;95533.06;;;22.79;53.44
69570;BME280;56781;42.292;23.146;2023-05-08T12:11:44;95531.50;;;22.82;50.78
69570;BME280;56781;42.292;23.146;2023-05-08T12:14:12;95525.19;;;22.67;48.80
69570;BME280;56781;42.292;23.146;2023-05-08T12:16:40;95528.94;;;22.51;51.86
69570;BME280;56781;42.292;23.146;2023-05-08T12:19:12;95543.88;;;23.16;46.99
69570;BME280;56781;42.292;23.146;2023-05-08T12:21:48;95521.38;;;22.82;48.90
69570;BME280;56781;42.292;23.146;2023-05-08T12:24:16;95528.72;;;23.26;46.83
69570;BME280;56781;42.292;23.146;2023-05-08T12:26:52;95520.72;;;23.62;45.82
69570;BME280;56781;42.292;23.146;2023-05-08T12:29:20;95502.50;;;24.09;43.54
69570;BME280;56781;42.292;23.146;2023-05-08T12:31:48;95508.50;;;23.45;44.65
69570;BME280;56781;42.292;23.146;2023-05-08T12:34:15;95520.31;;;23.60;43.60
69570;BME280;56781;42.292;23.146;2023-05-08T12:36:43;95500.91;;;23.86;47.45
69570;BME280;56781;42.292;23.146;2023-05-08T12:39:14;95504.09;;;24.14;45.24
69570;BME280;56781;42.292;23.146;2023-05-08T12:41:49;95484.41;;;23.65;44.90
69570;BME280;56781;42.292;23.146;2023-05-08T12:44:23;95493.66;;;23.35;43.99
69570;BME280;56781;42.292;23.146;2023-05-08T12:46:53;95499.72;;;23.87;45.93
69570;BME280;56781;42.292;23.146;2023-05-08T12:49:29;95478.69;;;24.09;47.48
69570;BME280;56781;42.292;23.146;2023-05-08T12:52:12;95466.50;;;23.78;46.35
69570;BME280;56781;42.292;23.146;2023-05-08T12:54:45;95468.13;;;24.08;44.26
69570;BME280;56781;42.292;23.146;2023-05-08T12:57:15;95466.06;;;23.65;45.19
69570;BME280;56781;42.292;23.146;2023-05-08T12:59:44;95468.59;;;23.22;45.36
69570;BME280;56781;42.292;23.146;2023-05-08T13:02:19;95468.78;;;23.65;45.32
69570;BME280;56781;42.292;23.146;2023-05-08T13:04:58;95470.44;;;23.95;45.21
69570;BME280;56781;42.292;23.146;2023-05-08T13:07:32;95439.22;;;24.14;43.42
69570;BME280;56781;42.292;23.146;2023-05-08T13:10:00;95448.22;;;24.36;41.98
69570;BME280;56781;42.292;23.146;2023-05-08T13:12:30;95446.28;;;24.51;41.59
69570;BME280;56781;42.292;23.146;2023-05-08T13:14:58;95441.56;;;24.37;42.17
69570;BME280;56781;42.292;23.146;2023-05-08T13:17:26;95441.19;;;24.53;42.58
69570;BME280;56781;42.292;23.146;2023-05-08T13:19:53;95448.59;;;24.42;42.15
69570;BME280;56781;42.292;23.146;2023-05-08T13:22:20;95429.47;;;24.27;42.15
69570;BME280;56781;42.292;23.146;2023-05-08T13:24:52;95428.22;;;24.96;42.66
69570;BME280;56781;42.292;23.146;2023-05-08T13:27:19;95421.25;;;24.38;41.03
69570;BME280;56781;42.292;23.146;2023-05-08T13:29:46;95424.38;;;24.51;44.44
69570;BME280;56781;42.292;23.146;2023-05-08T13:32:13;95422.03;;;24.17;42.04
69570;BME280;56781;42.292;23.146;2023-05-08T13:34:41;95438.84;;;24.19;42.85
69570;BME280;56781;42.292;23.146;2023-05-08T13:37:16;95421.59;;;23.79;42.87
69570;BME280;56781;42.292;23.146;2023-05-08T13:39:43;95431.72;;;22.88;48.80
69570;BME280;56781;42.292;23.146;2023-05-08T13:42:10;95437.66;;;22.01;49.23
69570;BME280;56781;42.292;23.146;2023-05-08T13:44:37;95424.06;;;21.30;49.50
69570;BME280;56781;42.292;23.146;2023-05-08T13:47:05;95463.97;;;20.88;56.10
69570;BME280;56781;42.292;23.146;2023-05-08T13:49:32;95473.06;;;20.23;62.71
69570;BME280;56781;42.292;23.146;2023-05-08T13:51:59;95482.63;;;19.52;71.68
69570;BME280;56781;42.292;23.146;2023-05-08T13:54:27;95485.16;;;18.54;71.45
69570;BME280;56781;42.292;23.146;2023-05-08T13:56:54;95458.31;;;17.58;77.17
69570;BME280;56781;42.292;23.146;2023-05-08T13:59:21;95495.91;;;17.19;82.40
69570;BME280;56781;42.292;23.146;2023-05-08T14:01:49;95494.03;;;16.70;87.53
69570;BME280;56781;42.292;23.146;2023-05-08T14:04:16;95507.13;;;16.44;89.99
69570;BME280;56781;42.292;23.146;2023-05-08T14:06:45;95518.03;;;16.47;83.14
69570;BME280;56781;42.292;23.146;2023-05-08T14:09:12;95541.06;;;16.08;89.55
69570;BME280;56781;42.292;23.146;2023-05-08T14:11:39;95537.63;;;15.65;94.55
69570;BME280;56781;42.292;23.146;2023-05-08T14:14:06;95537.13;;;15.72;95.12
69570;BME280;56781;42.292;23.146;2023-05-08T14:16:34;95572.25;;;15.84;99.23
69570;BME280;56781;42.292;23.146;2023-05-08T14:19:05;95553.13;;;15.77;98.15
69570;BME280;56781;42.292;23.146;2023-05-08T14:21:33;95545.41;;;15.67;100.00
69570;BME280;56781;42.292;23.146;2023-05-08T14:24:00;95551.47;;;15.64;100.00
69570;BME280;56781;42.292;23.146;2023-05-08T14:26:27;95540.22;;;15.62;100.00
69570;BME280;56781;42.292;23.146;2023-05-08T14:28:56;95553.34;;;15.72;100.00